Terminal Aerodrome Forecast
Issued by NWS Cleveland, OH

Home | Current Version | Previous Version | Graphics & Text | Print | Product List | Glossary On
Versions: 1 2 3 4 5 6 7 8 9 10 11 12 13 14 15 16 17 18
287
FTUS41 KCLE 232329
TAFCAK
TAF
KCAK 232329Z 2400/2424 09005KT P6SM OVC200
     FM240400 07006KT P6SM SKC
     FM241800 10010G20KT P6SM BKN250
     FM242000 10010G20KT P6SM OVC090
     FM242200 11010G20KT P6SM OVC050=

USA.gov is the U.S. government's official web portal to all federal, state and local government web resources and services.